Time;durP1;ratioP1;P1;durP2;ratioP2;P2;SDS_P1;SDS_P2;PMS_P1;PMS_P2;Temp;Humidity;BMP_temperature;BMP_pressure;BME280_temperature;BME280_humidity;BME280_pressure;Samples;Min_cycle;Max_cycle;Signal;HPM_P1;HPM_P2
2024/01/30 00:01:38;;;;;;;16.53;14.13;;;7.30;1.00;;;;;;5079431;28;20687;-89
2024/01/30 00:04:04;;;;;;;17.87;13.87;;;7.20;1.00;;;;;;5061405;28;20177;-89
2024/01/30 00:06:30;;;;;;;20.20;13.70;;;7.20;1.00;;;;;;5061370;28;20213;-89
2024/01/30 00:08:55;;;;;;;20.60;13.97;;;7.10;5.90;;;;;;5082650;28;20653;-89
2024/01/30 00:11:22;;;;;;;15.90;13.27;;;7.10;16.60;;;;;;5081449;28;20220;-89
2024/01/30 00:13:48;;;;;;;21.27;13.93;;;7.00;37.80;;;;;;5081567;28;20173;-89
2024/01/30 00:16:21;;;;;;;18.10;13.87;;;7.10;57.90;;;;;;5079366;28;20203;-89
2024/01/30 00:18:47;;;;;;;14.80;13.27;;;7.00;81.20;;;;;;5078400;28;20227;-89
2024/01/30 00:21:13;;;;;;;17.17;13.07;;;7.00;99.90;;;;;;5078103;28;20600;-89
2024/01/30 00:23:38;;;;;;;17.17;13.13;;;6.90;99.90;;;;;;5077835;28;20231;-89
2024/01/30 00:26:05;;;;;;;16.63;13.07;;;6.90;99.90;;;;;;5077346;28;20201;-88
2024/01/30 00:28:32;;;;;;;16.20;14.23;;;6.90;99.90;;;;;;5096199;28;20196;-89
2024/01/30 00:30:57;;;;;;;18.23;13.37;;;6.80;99.90;;;;;;5077615;28;20224;-90
2024/01/30 00:33:24;;;;;;;16.03;13.90;;;6.90;99.90;;;;;;5077867;28;20195;-89
2024/01/30 00:35:50;;;;;;;20.80;14.63;;;6.90;99.90;;;;;;5096057;28;20657;-89
2024/01/30 00:38:16;;;;;;;17.80;14.10;;;6.80;99.90;;;;;;5081175;28;20203;-89
2024/01/30 00:40:41;;;;;;;20.17;15.20;;;6.80;99.90;;;;;;5057409;28;20182;-90
2024/01/30 00:43:07;;;;;;;23.43;15.07;;;7.00;99.90;;;;;;5057086;28;20181;-89
2024/01/30 00:45:33;;;;;;;18.70;14.80;;;6.70;99.90;;;;;;5057360;28;20733;-90
2024/01/30 00:47:59;;;;;;;16.40;14.17;;;6.60;99.90;;;;;;5057247;28;20250;-89
2024/01/30 00:50:24;;;;;;;18.47;13.83;;;6.70;99.90;;;;;;5065358;28;20224;-88
2024/01/30 00:52:50;;;;;;;18.73;14.73;;;6.70;99.90;;;;;;5098423;28;20287;-89
2024/01/30 00:55:15;;;;;;;18.13;13.97;;;6.80;99.90;;;;;;5097945;28;20188;-89
2024/01/30 00:57:41;;;;;;;19.47;14.53;;;6.60;99.90;;;;;;5078482;28;20223;-89
2024/01/30 01:00:09;;;;;;;21.83;14.37;;;6.70;99.90;;;;;;5077266;28;20603;-89
2024/01/30 01:02:35;;;;;;;21.50;15.07;;;6.50;99.90;;;;;;5077229;28;20244;-89
2024/01/30 01:05:01;;;;;;;18.30;14.37;;;6.60;99.90;;;;;;5073149;28;20174;-89
2024/01/30 01:07:27;;;;;;;21.47;15.00;;;6.50;99.90;;;;;;5059563;28;20251;-88
2024/01/30 01:09:53;;;;;;;17.10;14.93;;;6.50;99.90;;;;;;5095251;28;20257;-88
2024/01/30 01:12:18;;;;;;;19.27;14.47;;;6.60;99.90;;;;;;5077245;28;20705;-89
2024/01/30 01:14:44;;;;;;;23.80;15.37;;;6.60;99.90;;;;;;5078081;28;20291;-88
2024/01/30 01:17:10;;;;;;;19.03;14.93;;;6.80;99.90;;;;;;5077084;28;20605;-89
2024/01/30 01:19:35;;;;;;;21.40;15.30;;;6.50;99.90;;;;;;5080555;28;20441;-90
2024/01/30 01:22:01;;;;;;;20.37;15.57;;;6.70;99.90;;;;;;5056572;28;20292;-89
2024/01/30 01:24:26;;;;;;;19.77;14.77;;;6.50;99.90;;;;;;5057034;28;20181;-88
2024/01/30 01:26:52;;;;;;;20.47;14.67;;;6.50;99.90;;;;;;5056357;28;20293;-89
2024/01/30 01:29:18;;;;;;;20.00;14.53;;;6.50;99.90;;;;;;5056686;28;20174;-89
2024/01/30 01:31:43;;;;;;;20.10;15.23;;;6.50;99.90;;;;;;5040195;28;20216;-89
2024/01/30 01:34:14;;;;;;;18.53;16.07;;;6.60;99.90;;;;;;5074605;28;20268;-89
2024/01/30 01:36:39;;;;;;;23.83;15.53;;;6.50;99.90;;;;;;5056767;28;20201;-89
2024/01/30 01:39:05;;;;;;;18.00;15.93;;;6.50;99.90;;;;;;5056491;28;20659;-89
2024/01/30 01:41:32;;;;;;;21.37;14.63;;;6.60;99.90;;;;;;5074212;28;20220;-89
2024/01/30 01:43:59;;;;;;;18.40;15.73;;;6.40;99.90;;;;;;5074503;28;20181;-89
2024/01/30 01:46:27;;;;;;;21.17;16.00;;;6.50;99.90;;;;;;5060996;28;20231;-89
2024/01/30 01:48:53;;;;;;;20.13;15.87;;;6.70;99.90;;;;;;5076310;28;20181;-89
2024/01/30 01:51:20;;;;;;;18.93;15.60;;;6.50;99.90;;;;;;5075906;28;20729;-89
2024/01/30 01:53:45;;;;;;;17.03;14.67;;;6.70;99.90;;;;;;5076325;28;20264;-89
2024/01/30 01:56:11;;;;;;;21.27;14.90;;;6.70;99.90;;;;;;5076277;28;20221;-89
2024/01/30 01:58:37;;;;;;;19.90;15.77;;;6.50;99.90;;;;;;5076179;28;20181;-89
2024/01/30 02:01:04;;;;;;;23.10;15.23;;;6.50;99.90;;;;;;5091089;28;20201;-89
2024/01/30 02:03:30;;;;;;;17.57;15.20;;;6.50;99.90;;;;;;5056062;28;20188;-89
2024/01/30 02:05:57;;;;;;;18.27;15.03;;;6.50;99.90;;;;;;5074006;28;20280;-90
2024/01/30 02:08:24;;;;;;;28.23;16.13;;;6.50;99.90;;;;;;5039600;28;20201;-89
2024/01/30 02:10:49;;;;;;;22.33;15.27;;;6.50;99.90;;;;;;5056025;28;20202;-87
2024/01/30 02:13:15;;;;;;;21.20;15.53;;;6.30;99.90;;;;;;5056581;28;20270;-89
2024/01/30 02:15:40;;;;;;;18.33;15.53;;;6.50;99.90;;;;;;5070724;28;20177;-89
2024/01/30 02:18:07;;;;;;;19.63;15.73;;;6.50;99.90;;;;;;5076178;28;20248;-89
2024/01/30 02:20:35;;;;;;;23.50;16.37;;;6.40;99.90;;;;;;5076267;28;20662;-89
2024/01/30 02:23:02;;;;;;;20.10;15.80;;;6.40;99.90;;;;;;5076065;28;20212;-89
2024/01/30 02:25:33;;;;;;;24.83;16.43;;;6.40;99.90;;;;;;5076182;28;20210;-88
2024/01/30 02:27:58;;;;;;;21.20;15.00;;;6.40;99.90;;;;;;5076274;28;20188;-89
2024/01/30 02:30:24;;;;;;;20.90;16.17;;;6.60;99.90;;;;;;5092304;28;20197;-88
2024/01/30 02:32:49;;;;;;;22.93;15.50;;;6.50;99.90;;;;;;5094098;28;20643;-88
2024/01/30 02:35:15;;;;;;;20.90;15.70;;;6.50;99.90;;;;;;5076125;28;20238;-87
2024/01/30 02:37:41;;;;;;;19.50;14.40;;;6.40;99.90;;;;;;5075950;28;20254;-89
2024/01/30 02:40:08;;;;;;;21.97;16.17;;;6.50;99.90;;;;;;5075864;28;20177;-90
2024/01/30 02:42:34;;;;;;;19.07;15.17;;;6.50;99.90;;;;;;5071132;28;20208;-89
2024/01/30 02:45:00;;;;;;;22.43;15.83;;;6.50;99.90;;;;;;5056745;28;20182;-90
2024/01/30 02:47:25;;;;;;;25.17;16.00;;;6.50;99.90;;;;;;5056451;28;20330;-89
2024/01/30 02:49:51;;;;;;;22.00;16.10;;;6.50;99.90;;;;;;5056438;28;20233;-90
2024/01/30 02:52:17;;;;;;;24.07;16.17;;;6.50;99.90;;;;;;5056017;28;20202;-89
2024/01/30 02:54:42;;;;;;;19.73;15.27;;;6.50;99.90;;;;;;5057171;28;20255;-88
2024/01/30 02:57:08;;;;;;;20.13;15.90;;;6.60;99.90;;;;;;5074789;28;20239;-90
2024/01/30 02:59:35;;;;;;;20.10;15.50;;;6.50;99.90;;;;;;5075443;28;20754;-90
2024/01/30 03:02:01;;;;;;;25.03;15.93;;;6.50;99.90;;;;;;5077066;28;20203;-89
2024/01/30 03:04:29;;;;;;;23.87;16.63;;;6.50;99.90;;;;;;5097614;28;20174;-88
2024/01/30 03:06:55;;;;;;;21.33;16.70;;;6.50;99.90;;;;;;5079397;28;20197;-88
2024/01/30 03:09:21;;;;;;;19.20;15.07;;;6.50;99.90;;;;;;5094594;28;20685;-89
2024/01/30 03:11:47;;;;;;;20.10;16.53;;;6.60;99.90;;;;;;5077292;28;20211;-89
2024/01/30 03:14:12;;;;;;;17.70;15.27;;;6.60;99.90;;;;;;5075304;28;20181;-89
2024/01/30 03:16:38;;;;;;;22.17;15.80;;;6.80;99.90;;;;;;5075703;28;20253;-89
2024/01/30 03:19:07;;;;;;;20.00;15.33;;;6.80;99.90;;;;;;5074934;28;20239;-90
2024/01/30 03:21:33;;;;;;;19.30;15.10;;;6.60;99.90;;;;;;5074978;28;20185;-90
2024/01/30 03:23:59;;;;;;;20.90;15.80;;;6.70;99.90;;;;;;5061670;28;20188;-89
2024/01/30 03:26:25;;;;;;;22.30;16.70;;;6.60;99.90;;;;;;5055741;28;20281;-89
2024/01/30 03:28:50;;;;;;;21.73;16.10;;;6.60;99.90;;;;;;5056468;28;20210;-90
2024/01/30 03:31:18;;;;;;;20.47;17.27;;;6.70;99.90;;;;;;5093199;28;20227;-90
2024/01/30 03:33:43;;;;;;;22.80;15.83;;;6.70;99.90;;;;;;5070498;28;20542;-91
2024/01/30 03:36:09;;;;;;;21.33;16.33;;;6.60;99.90;;;;;;5055280;28;20438;-90
2024/01/30 03:38:35;;;;;;;23.80;16.87;;;6.60;99.90;;;;;;5055552;28;20244;-90
2024/01/30 03:41:01;;;;;;;21.57;15.73;;;6.60;99.90;;;;;;5055159;28;20174;-90
2024/01/30 03:43:27;;;;;;;20.20;15.20;;;6.60;99.90;;;;;;5056217;28;20200;-89
2024/01/30 03:45:53;;;;;;;22.03;16.23;;;6.80;99.90;;;;;;5073379;28;20174;-90
2024/01/30 03:48:20;;;;;;;21.77;15.77;;;6.90;99.90;;;;;;5058059;28;20294;-91
2024/01/30 03:50:46;;;;;;;17.80;15.40;;;6.70;99.90;;;;;;5092948;28;20205;-89
2024/01/30 03:53:11;;;;;;;18.90;15.37;;;6.60;99.90;;;;;;5077933;28;20169;-89
2024/01/30 03:55:38;;;;;;;22.53;16.03;;;6.50;99.90;;;;;;5078438;28;20249;-89
2024/01/30 03:58:04;;;;;;;20.03;15.97;;;6.60;99.90;;;;;;5065884;28;20170;-90
2024/01/30 04:00:29;;;;;;;21.37;16.33;;;6.60;99.90;;;;;;5058861;28;20686;-89
2024/01/30 04:02:55;;;;;;;20.90;14.93;;;6.60;99.90;;;;;;5058918;28;20271;-90
2024/01/30 04:05:20;;;;;;;18.57;14.40;;;6.60;99.90;;;;;;5058942;28;20201;-88
2024/01/30 04:07:46;;;;;;;17.30;14.73;;;6.50;99.90;;;;;;5058740;28;20571;-90
2024/01/30 04:10:12;;;;;;;21.70;15.23;;;6.70;99.90;;;;;;5076549;28;20211;-90
2024/01/30 04:12:37;;;;;;;19.53;15.13;;;6.50;99.90;;;;;;5076451;28;20252;-90
2024/01/30 04:15:03;;;;;;;17.80;13.87;;;6.60;99.90;;;;;;5059010;28;20174;-91
2024/01/30 04:17:29;;;;;;;21.17;15.00;;;6.40;99.90;;;;;;5060583;28;20198;-90
2024/01/30 04:19:55;;;;;;;20.33;15.27;;;6.50;99.90;;;;;;5078974;28;20169;-89
2024/01/30 04:22:21;;;;;;;20.87;14.93;;;6.50;99.90;;;;;;5078079;28;20306;-90
2024/01/30 04:24:47;;;;;;;26.60;16.07;;;6.40;99.90;;;;;;5060136;28;20181;-91
2024/01/30 04:27:12;;;;;;;23.23;14.87;;;6.40;99.90;;;;;;5058474;28;20239;-90
2024/01/30 04:29:38;;;;;;;21.93;14.67;;;6.40;99.90;;;;;;5058200;28;20535;-89
2024/01/30 04:32:04;;;;;;;18.57;13.97;;;6.40;99.90;;;;;;5058168;28;20703;-90
2024/01/30 04:34:30;;;;;;;22.83;15.43;;;6.30;99.90;;;;;;5058338;28;20273;-90
2024/01/30 04:36:55;;;;;;;19.10;15.13;;;6.50;99.90;;;;;;5075842;28;20213;-89
2024/01/30 04:39:21;;;;;;;20.87;15.00;;;6.30;99.90;;;;;;5075928;28;20678;-88
2024/01/30 04:41:48;;;;;;;18.80;14.50;;;6.30;99.90;;;;;;5077872;28;20177;-90
2024/01/30 04:44:14;;;;;;;19.60;14.43;;;6.30;99.90;;;;;;5078075;28;20181;-89
2024/01/30 04:46:39;;;;;;;15.90;13.97;;;6.40;99.90;;;;;;5096274;28;20196;-88
2024/01/30 04:49:07;;;;;;;17.87;14.37;;;6.20;99.90;;;;;;5085949;28;20237;-87
2024/01/30 04:51:33;;;;;;;18.73;14.17;;;6.60;99.90;;;;;;5093903;28;20220;-90
2024/01/30 04:53:59;;;;;;;18.07;14.83;;;6.30;99.90;;;;;;5086631;28;20602;-89
2024/01/30 04:56:25;;;;;;;20.87;15.07;;;6.20;99.90;;;;;;5076653;28;20198;-89
2024/01/30 04:58:50;;;;;;;15.47;13.43;;;6.40;99.90;;;;;;5080867;28;20181;-89
2024/01/30 05:01:17;;;;;;;18.73;14.53;;;6.40;99.90;;;;;;5058160;28;20178;-89
2024/01/30 05:03:42;;;;;;;18.90;14.60;;;6.30;99.90;;;;;;5057674;28;20180;-89
2024/01/30 05:06:08;;;;;;;20.63;13.80;;;6.40;99.90;;;;;;5057876;28;20566;-90
2024/01/30 05:08:36;;;;;;;17.53;13.90;;;6.30;99.90;;;;;;5067114;28;20185;-90
2024/01/30 05:11:03;;;;;;;19.47;14.57;;;6.40;99.90;;;;;;5077523;28;20630;-89
2024/01/30 05:13:33;;;;;;;17.27;13.83;;;6.30;99.90;;;;;;5078111;28;20169;-89
2024/01/30 05:15:59;;;;;;;16.27;13.70;;;6.40;99.90;;;;;;5079146;28;20201;-89
2024/01/30 05:18:25;;;;;;;19.97;14.80;;;6.50;99.90;;;;;;5078789;28;20170;-89
2024/01/30 05:20:51;;;;;;;16.33;14.10;;;6.40;99.90;;;;;;5076277;28;20355;-89
2024/01/30 05:23:16;;;;;;;17.53;13.80;;;6.50;99.90;;;;;;5075483;28;20204;-89
2024/01/30 05:25:42;;;;;;;20.60;13.97;;;6.50;99.90;;;;;;5075685;28;20213;-90
2024/01/30 05:28:07;;;;;;;16.57;13.37;;;6.50;99.90;;;;;;5074695;28;20242;-89
2024/01/30 05:30:34;;;;;;;18.37;13.90;;;6.50;99.90;;;;;;5077017;28;20249;-90
2024/01/30 05:33:00;;;;;;;16.70;13.20;;;6.50;99.90;;;;;;5095734;28;20169;-90
2024/01/30 05:35:26;;;;;;;20.87;13.87;;;6.50;99.90;;;;;;5096146;28;20631;-89
2024/01/30 05:37:52;;;;;;;17.40;13.97;;;6.60;99.90;;;;;;5096225;28;20193;-90
2024/01/30 05:40:18;;;;;;;18.60;13.40;;;6.40;99.90;;;;;;5077321;28;20264;-89
2024/01/30 05:42:43;;;;;;;20.60;13.60;;;6.50;99.90;;;;;;5080379;28;20230;-90
2024/01/30 05:45:09;;;;;;;16.67;13.67;;;6.40;99.90;;;;;;5076560;28;20182;-91
2024/01/30 05:47:35;;;;;;;16.47;14.20;;;6.50;99.90;;;;;;5095212;28;20189;-90
2024/01/30 05:50:01;;;;;;;15.97;12.53;;;6.60;99.90;;;;;;5076377;28;20184;-89
2024/01/30 05:52:26;;;;;;;16.97;12.73;;;6.40;99.90;;;;;;5076644;28;20201;-90
2024/01/30 05:54:52;;;;;;;17.57;13.20;;;6.40;99.90;;;;;;5076669;28;20303;-89
2024/01/30 05:57:18;;;;;;;15.10;12.30;;;6.60;99.90;;;;;;5076709;28;20219;-89
2024/01/30 05:59:44;;;;;;;17.67;13.00;;;6.30;99.90;;;;;;5076624;28;20253;-89
2024/01/30 06:02:11;;;;;;;16.67;13.50;;;6.40;99.90;;;;;;5077146;28;20669;-89
2024/01/30 06:04:37;;;;;;;17.30;12.17;;;6.40;99.90;;;;;;5073658;28;20178;-89
2024/01/30 06:07:02;;;;;;;15.23;12.57;;;6.30;99.90;;;;;;5063260;28;20741;-90
2024/01/30 06:09:29;;;;;;;15.70;12.93;;;6.20;99.90;;;;;;5055783;28;20230;-89
2024/01/30 06:11:54;;;;;;;15.30;12.77;;;6.30;99.90;;;;;;5073996;28;20207;-89
2024/01/30 06:14:21;;;;;;;18.30;13.60;;;6.30;99.90;;;;;;5072945;28;20182;-90
2024/01/30 06:16:46;;;;;;;18.50;12.57;;;6.10;99.90;;;;;;5055676;28;20194;-90
2024/01/30 06:19:12;;;;;;;15.03;12.27;;;6.20;99.90;;;;;;5076145;28;20176;-89
2024/01/30 06:21:38;;;;;;;16.57;12.50;;;6.30;99.90;;;;;;5093938;28;20180;-89
2024/01/30 06:24:04;;;;;;;17.37;13.17;;;6.20;99.90;;;;;;5076537;28;20190;-91
2024/01/30 06:26:30;;;;;;;13.73;12.23;;;6.20;99.90;;;;;;5075610;28;20201;-90
2024/01/30 06:28:55;;;;;;;16.83;13.03;;;6.30;99.90;;;;;;5075442;28;20343;-90
2024/01/30 06:31:21;;;;;;;18.67;13.33;;;6.30;99.90;;;;;;5074835;28;20793;-89
2024/01/30 06:33:50;;;;;;;14.97;12.50;;;6.60;99.90;;;;;;5056645;28;20205;-90
2024/01/30 06:36:16;;;;;;;18.57;12.43;;;6.50;99.90;;;;;;5055611;28;20194;-89
2024/01/30 06:38:43;;;;;;;16.73;12.60;;;6.40;99.90;;;;;;5055933;28;20170;-90
2024/01/30 06:41:08;;;;;;;15.27;12.30;;;6.40;99.90;;;;;;5054928;28;20264;-90
2024/01/30 06:43:34;;;;;;;16.03;12.83;;;6.50;99.90;;;;;;5074263;28;20174;-89
2024/01/30 06:46:01;;;;;;;15.17;12.93;;;6.50;99.90;;;;;;5055661;28;20207;-89
2024/01/30 06:48:27;;;;;;;16.20;12.00;;;6.50;99.90;;;;;;5055620;28;20170;-90
2024/01/30 06:50:57;;;;;;;16.90;12.73;;;6.60;99.90;;;;;;5088367;28;20208;-89
2024/01/30 06:53:23;;;;;;;15.70;12.83;;;6.70;99.90;;;;;;5076211;28;20170;-90
2024/01/30 06:55:48;;;;;;;18.17;13.93;;;6.70;99.90;;;;;;5076052;28;20188;-89
2024/01/30 06:58:14;;;;;;;19.30;13.27;;;6.90;99.90;;;;;;5077384;28;20177;-90
2024/01/30 07:00:40;;;;;;;15.33;12.30;;;6.80;99.90;;;;;;5076798;28;20185;-90
2024/01/30 07:03:06;;;;;;;16.27;12.67;;;6.80;99.90;;;;;;5077150;28;20184;-90
2024/01/30 07:05:32;;;;;;;19.57;12.57;;;7.00;99.90;;;;;;5094067;28;20189;-90
2024/01/30 07:07:58;;;;;;;17.00;12.57;;;6.90;99.90;;;;;;5076735;28;20291;-92
2024/01/30 07:10:24;;;;;;;18.60;12.10;;;7.00;99.90;;;;;;5076641;28;20251;-91
2024/01/30 07:12:50;;;;;;;17.50;13.23;;;6.90;99.90;;;;;;5064452;28;20178;-91
2024/01/30 07:15:19;;;;;;;17.17;12.67;;;7.00;99.90;;;;;;5039613;28;20181;-90
2024/01/30 07:17:45;;;;;;;15.50;11.83;;;6.90;99.90;;;;;;5060916;28;20288;-89
2024/01/30 07:20:12;;;;;;;16.10;12.23;;;6.90;99.90;;;;;;5075889;28;20213;-90
2024/01/30 07:22:37;;;;;;;16.67;12.67;;;6.80;99.90;;;;;;5058781;28;20737;-89
2024/01/30 07:25:03;;;;;;;19.50;12.83;;;6.90;99.90;;;;;;5058445;28;20273;-90
2024/01/30 07:27:29;;;;;;;17.13;12.50;;;6.80;99.90;;;;;;5059311;28;20194;-90
2024/01/30 07:29:55;;;;;;;19.63;12.17;;;6.90;99.90;;;;;;5060065;28;20467;-90
2024/01/30 07:32:20;;;;;;;17.70;13.47;;;7.00;99.90;;;;;;5067896;28;20208;-89
2024/01/30 07:34:47;;;;;;;17.23;12.53;;;7.00;99.90;;;;;;5072242;28;20181;-90
2024/01/30 07:37:15;;;;;;;17.27;12.37;;;6.90;99.90;;;;;;5060665;28;20186;-90
2024/01/30 07:39:41;;;;;;;14.07;11.93;;;7.10;99.90;;;;;;5059558;28;20190;-90
2024/01/30 07:42:07;;;;;;;19.13;13.30;;;7.10;99.90;;;;;;5058821;28;20210;-90
2024/01/30 07:44:33;;;;;;;15.87;12.77;;;7.10;99.90;;;;;;5059420;28;20227;-90
2024/01/30 07:46:59;;;;;;;16.73;12.27;;;7.40;99.90;;;;;;5091459;28;20222;-91
2024/01/30 07:49:25;;;;;;;15.30;12.60;;;7.20;99.90;;;;;;5078469;28;20174;-90
2024/01/30 07:51:50;;;;;;;20.50;12.60;;;7.30;99.90;;;;;;5078407;28;20201;-91
2024/01/30 07:54:17;;;;;;;18.00;12.60;;;7.30;99.90;;;;;;5078601;28;20169;-90
2024/01/30 07:56:42;;;;;;;16.63;12.43;;;7.40;99.90;;;;;;5078488;28;20673;-90
2024/01/30 07:59:12;;;;;;;15.20;12.50;;;7.40;99.90;;;;;;5078268;28;20173;-90
2024/01/30 08:01:38;;;;;;;18.27;12.97;;;7.50;99.90;;;;;;5064542;28;20190;-90
2024/01/30 08:04:04;;;;;;;16.83;12.20;;;7.50;99.90;;;;;;5058399;28;20268;-91
2024/01/30 08:06:31;;;;;;;17.57;12.40;;;7.50;99.90;;;;;;5058602;28;20230;-90
2024/01/30 08:08:57;;;;;;;16.07;12.37;;;7.60;99.90;;;;;;5058373;28;20213;-91
2024/01/30 08:11:26;;;;;;;15.17;12.47;;;7.60;99.90;;;;;;5077213;28;20671;-90
2024/01/30 08:13:53;;;;;;;17.20;13.13;;;7.60;99.90;;;;;;5063445;28;20181;-92
2024/01/30 08:16:18;;;;;;;18.10;12.87;;;7.70;99.90;;;;;;5078815;28;20193;-90
2024/01/30 08:18:44;;;;;;;15.63;13.43;;;7.70;99.90;;;;;;5078277;28;20272;-90
2024/01/30 08:21:09;;;;;;;20.07;13.27;;;7.70;99.90;;;;;;5078066;28;20296;-91
2024/01/30 08:23:35;;;;;;;21.93;14.17;;;7.70;99.90;;;;;;5078281;28;20177;-91
2024/01/30 08:26:02;;;;;;;15.43;13.53;;;7.60;99.90;;;;;;5077723;28;20193;-91
2024/01/30 08:28:28;;;;;;;17.63;13.23;;;7.70;99.90;;;;;;5059504;28;20182;-91
2024/01/30 08:30:54;;;;;;;18.17;13.40;;;7.70;99.90;;;;;;5058387;28;20264;-90
2024/01/30 08:33:21;;;;;;;16.03;13.03;;;7.80;99.90;;;;;;5058317;28;20186;-90
2024/01/30 08:35:46;;;;;;;15.20;12.90;;;7.80;99.90;;;;;;5058474;28;20435;-90
2024/01/30 08:38:13;;;;;;;16.93;13.70;;;8.00;99.90;;;;;;5057620;28;20244;-90
2024/01/30 08:40:39;;;;;;;17.37;13.67;;;8.00;99.90;;;;;;5058014;28;20189;-90
2024/01/30 08:43:05;;;;;;;14.23;12.73;;;8.10;99.90;;;;;;5073435;28;20201;-90
2024/01/30 08:45:31;;;;;;;19.60;13.17;;;8.30;99.90;;;;;;5096649;28;20757;-89
2024/01/30 08:47:57;;;;;;;13.67;12.27;;;8.30;99.90;;;;;;5078553;28;20209;-90
2024/01/30 08:50:22;;;;;;;14.90;13.10;;;8.50;99.90;;;;;;5078500;28;20186;-90
2024/01/30 08:52:48;;;;;;;14.40;12.20;;;8.60;99.90;;;;;;5100357;28;20245;-88
2024/01/30 08:55:14;;;;;;;15.37;12.53;;;8.70;99.90;;;;;;5081068;28;20174;-88
2024/01/30 08:57:40;;;;;;;13.17;11.67;;;8.90;99.90;;;;;;5081209;28;20194;-87
2024/01/30 09:00:08;;;;;;;14.13;11.77;;;9.10;99.90;;;;;;5081382;28;20249;-88
2024/01/30 09:02:34;;;;;;;13.87;11.40;;;9.20;99.90;;;;;;5080994;28;20802;-87
2024/01/30 09:05:00;;;;;;;14.13;11.07;;;9.30;99.90;;;;;;5081057;28;20248;-91
2024/01/30 09:07:26;;;;;;;15.60;11.53;;;9.50;99.90;;;;;;5089373;28;20198;-90
2024/01/30 09:09:52;;;;;;;13.83;11.07;;;9.60;99.90;;;;;;5086971;28;20209;-91
2024/01/30 09:12:18;;;;;;;13.43;11.67;;;9.80;99.90;;;;;;5077612;28;20716;-91
2024/01/30 09:14:44;;;;;;;13.80;11.53;;;9.60;99.90;;;;;;5078246;28;20239;-91
2024/01/30 09:17:10;;;;;;;17.60;10.97;;;10.00;99.90;;;;;;5078063;28;20197;-90
2024/01/30 09:19:35;;;;;;;14.07;10.67;;;10.10;99.90;;;;;;5058507;28;20269;-91
2024/01/30 09:22:01;;;;;;;13.70;10.63;;;10.10;99.90;;;;;;5057879;28;20174;-90
2024/01/30 09:24:27;;;;;;;13.03;10.43;;;10.30;99.90;;;;;;5057858;28;20186;-91
2024/01/30 09:26:53;;;;;;;13.90;11.83;;;10.50;99.90;;;;;;5059188;28;20240;-90
2024/01/30 09:29:18;;;;;;;12.30;9.97;;;10.50;99.90;;;;;;5076021;28;20177;-90
2024/01/30 09:31:45;;;;;;;12.23;10.23;;;10.50;99.90;;;;;;5057014;28;20269;-90
2024/01/30 09:34:11;;;;;;;15.37;10.67;;;10.70;99.90;;;;;;5057453;28;20200;-91
2024/01/30 09:36:38;;;;;;;13.23;10.17;;;10.70;99.90;;;;;;5075391;28;20276;-91
2024/01/30 09:39:04;;;;;;;12.37;10.10;;;10.80;99.90;;;;;;5057636;28;20452;-91
2024/01/30 09:41:32;;;;;;;13.13;10.27;;;10.90;99.90;;;;;;5057339;28;20205;-91
2024/01/30 09:44:00;;;;;;;11.13;9.93;;;10.90;99.90;;;;;;5057198;28;20178;-91
2024/01/30 09:46:28;;;;;;;12.03;10.80;;;10.90;99.90;;;;;;5056926;28;20285;-91
2024/01/30 09:48:55;;;;;;;13.67;10.10;;;10.90;99.90;;;;;;5073278;28;20227;-91
2024/01/30 09:51:22;;;;;;;15.00;10.73;;;10.90;99.90;;;;;;5076513;28;20201;-91
2024/01/30 09:53:48;;;;;;;12.53;10.80;;;10.80;99.90;;;;;;5077108;28;20590;-93
2024/01/30 09:56:14;;;;;;;15.50;10.97;;;10.90;99.90;;;;;;5077209;28;20197;-92
2024/01/30 09:58:40;;;;;;;13.87;11.33;;;10.80;99.90;;;;;;5077587;28;20184;-90
2024/01/30 10:01:06;;;;;;;15.07;11.37;;;10.80;99.90;;;;;;5068854;28;20182;-90
2024/01/30 10:03:32;;;;;;;14.00;10.83;;;10.80;99.90;;;;;;5058055;28;20178;-91
2024/01/30 10:05:58;;;;;;;14.57;10.90;;;10.80;99.90;;;;;;5058079;28;20197;-90
2024/01/30 10:08:23;;;;;;;17.30;11.00;;;10.80;99.90;;;;;;5058705;28;20272;-91
2024/01/30 10:10:50;;;;;;;14.40;11.87;;;10.80;99.90;;;;;;5058603;28;20270;-89
2024/01/30 10:13:16;;;;;;;13.43;11.30;;;10.70;99.90;;;;;;5058916;28;20181;-91
2024/01/30 10:15:42;;;;;;;14.93;11.17;;;10.60;99.90;;;;;;5076134;28;20166;-90
2024/01/30 10:18:10;;;;;;;16.40;11.10;;;10.60;99.90;;;;;;5061001;28;20209;-91
2024/01/30 10:20:36;;;;;;;16.73;11.60;;;10.70;99.90;;;;;;5059473;28;20332;-90
2024/01/30 10:23:02;;;;;;;12.80;11.47;;;10.70;99.90;;;;;;5057011;28;20197;-90
2024/01/30 10:25:28;;;;;;;13.00;10.93;;;10.80;99.90;;;;;;5056793;28;20166;-90
2024/01/30 10:27:57;;;;;;;14.17;11.07;;;10.70;99.90;;;;;;5056816;28;20201;-90
2024/01/30 10:30:23;;;;;;;11.90;10.67;;;10.80;99.90;;;;;;5055858;28;20170;-90
2024/01/30 10:32:49;;;;;;;14.00;11.57;;;10.80;99.90;;;;;;5056822;28;20179;-90
2024/01/30 10:35:15;;;;;;;13.00;11.70;;;10.80;99.90;;;;;;5057787;28;20166;-90
2024/01/30 10:37:43;;;;;;;12.33;11.03;;;10.90;99.90;;;;;;5056451;28;20484;-91
2024/01/30 10:40:13;;;;;;;13.77;10.47;;;10.80;99.90;;;;;;5078273;28;20181;-90
2024/01/30 10:42:42;;;;;;;14.13;11.57;;;10.80;99.90;;;;;;5056538;28;20178;-90
2024/01/30 10:45:12;;;;;;;12.13;10.83;;;11.00;99.90;;;;;;5062974;28;20529;-91
2024/01/30 10:47:41;;;;;;;14.40;10.80;;;10.90;99.90;;;;;;5077444;28;20628;-90
2024/01/30 10:50:09;;;;;;;14.20;10.87;;;11.00;99.90;;;;;;5076907;28;20181;-90
2024/01/30 10:52:34;;;;;;;17.37;11.63;;;11.20;99.90;;;;;;5076320;28;20279;-90
2024/01/30 10:55:01;;;;;;;13.40;11.27;;;11.20;99.90;;;;;;5076343;28;20216;-90
2024/01/30 10:57:27;;;;;;;15.47;11.70;;;11.40;99.90;;;;;;5094477;28;20225;-90
2024/01/30 11:00:05;;;;;;;14.67;11.33;;;11.40;99.90;;;;;;5075002;28;20202;-90
2024/01/30 11:02:31;;;;;;;14.60;11.10;;;11.50;99.90;;;;;;5056436;28;20237;-91
2024/01/30 11:04:58;;;;;;;15.37;11.47;;;11.60;99.90;;;;;;5055815;28;20181;-90
2024/01/30 11:07:26;;;;;;;16.63;11.33;;;11.70;99.90;;;;;;5074440;28;20748;-89
2024/01/30 11:10:04;;;;;;;14.33;10.93;;;11.80;99.90;;;;;;5056090;28;20212;-90
2024/01/30 11:12:33;;;;;;;15.20;10.80;;;11.90;99.90;;;;;;5057066;28;20292;-90
2024/01/30 11:15:06;;;;;;;18.13;11.33;;;11.90;99.90;;;;;;5056251;28;20175;-90
2024/01/30 11:17:52;;;;;;;15.57;10.70;;;12.00;99.90;;;;;;5055899;28;20194;-91
2024/01/30 11:20:25;;;;;;;12.50;10.67;;;12.10;99.90;;;;;;5066492;28;20323;-91
2024/01/30 11:22:52;;;;;;;18.87;11.60;;;12.20;99.90;;;;;;5076505;28;20261;-90
2024/01/30 11:25:20;;;;;;;19.53;11.03;;;12.20;99.90;;;;;;5059387;28;20188;-90
2024/01/30 11:27:49;;;;;;;13.97;11.37;;;12.30;99.90;;;;;;5076828;28;20275;-91
2024/01/30 11:30:28;;;;;;;13.33;11.07;;;12.30;99.90;;;;;;5094544;28;20673;-90
2024/01/30 11:33:04;;;;;;;17.43;11.27;;;12.40;99.90;;;;;;5097396;28;20173;-92
2024/01/30 11:35:39;;;;;;;14.37;11.47;;;12.60;99.90;;;;;;5095515;28;20266;-89
2024/01/30 11:38:07;;;;;;;17.73;11.27;;;12.70;99.90;;;;;;5077622;28;20177;-88
2024/01/30 11:40:34;;;;;;;13.77;11.00;;;12.80;99.90;;;;;;5084159;28;20303;-90
2024/01/30 11:43:01;;;;;;;12.23;10.93;;;13.00;99.90;;;;;;5076399;28;20216;-91
2024/01/30 11:45:27;;;;;;;13.47;11.03;;;13.10;99.90;;;;;;5076202;28;20560;-90
2024/01/30 11:47:54;;;;;;;13.17;10.90;;;13.30;99.90;;;;;;5082686;28;20198;-90
2024/01/30 11:50:20;;;;;;;13.83;10.80;;;13.40;99.90;;;;;;5058885;28;20556;-91
2024/01/30 11:52:46;;;;;;;15.37;11.17;;;13.50;99.90;;;;;;5056789;28;20197;-91
2024/01/30 11:55:13;;;;;;;16.60;10.87;;;13.60;99.90;;;;;;5055844;28;20170;-91
2024/01/30 11:57:39;;;;;;;14.30;11.50;;;13.70;99.90;;;;;;5073554;28;20219;-89
2024/01/30 12:00:10;;;;;;;16.60;11.10;;;13.70;99.90;;;;;;5073777;28;20190;-91
2024/01/30 12:02:39;;;;;;;14.87;11.47;;;13.80;99.90;;;;;;5074564;28;20213;-91
2024/01/30 12:05:06;;;;;;;15.93;11.83;;;13.80;99.90;;;;;;5079961;28;20177;-90
2024/01/30 12:07:36;;;;;;;16.10;10.97;;;13.90;99.90;;;;;;5077886;28;20201;-90
2024/01/30 12:10:03;;;;;;;15.20;11.10;;;13.90;99.90;;;;;;5076822;28;20651;-90
2024/01/30 12:12:29;;;;;;;15.60;11.07;;;13.80;99.90;;;;;;5078377;28;20611;-91
2024/01/30 12:14:56;;;;;;;15.67;10.30;;;13.90;99.90;;;;;;5082900;28;20201;-90
2024/01/30 12:17:33;;;;;;;17.77;11.20;;;14.10;99.90;;;;;;5082064;28;20276;-89
2024/01/30 12:20:12;;;;;;;15.40;10.53;;;14.10;99.90;;;;;;5067563;28;20185;-90
2024/01/30 12:22:42;;;;;;;13.53;9.77;;;14.10;99.90;;;;;;5075553;28;20651;-89
2024/01/30 12:25:12;;;;;;;13.73;11.23;;;14.10;99.90;;;;;;5080348;28;20645;-89
2024/01/30 12:27:41;;;;;;;15.60;10.50;;;14.00;99.90;;;;;;5079917;28;20208;-90
2024/01/30 12:30:12;;;;;;;11.83;8.60;;;13.90;99.90;;;;;;5080113;28;20195;-90
2024/01/30 12:32:44;;;;;;;12.80;7.70;;;13.90;99.90;;;;;;5080736;28;20253;-90